Time;durP1;ratioP1;P1;durP2;ratioP2;P2;SDS_P1;SDS_P2;PMS_P1;PMS_P2;Temp;Humidity;BMP_temperature;BMP_pressure;BME280_temperature;BME280_humidity;BME280_pressure;Samples;Min_cycle;Max_cycle;Signal;HPM_P1;HPM_P2
2023/03/11 00:01:09;;;;;;;0.00;0.00;;;;;;;12.35;55.05;97767.44;5363925;26;34453;-85
2023/03/11 00:03:37;;;;;;;0.10;0.05;;;;;;;12.17;56.23;97767.16;5345676;26;32193;-85
2023/03/11 00:06:06;;;;;;;0.00;0.00;;;;;;;12.28;56.38;97764.44;5364131;26;33497;-85
2023/03/11 00:08:33;;;;;;;0.00;0.00;;;;;;;12.25;55.60;97764.72;5345899;26;33714;-86
2023/03/11 00:11:02;;;;;;;0.00;0.00;;;;;;;12.29;55.97;97757.34;5327739;26;32712;-85
2023/03/11 00:13:30;;;;;;;0.00;0.00;;;;;;;12.36;54.71;97755.06;5345628;26;33777;-86
2023/03/11 00:15:59;;;;;;;0.00;0.00;;;;;;;12.22;54.15;97756.19;5345597;26;34609;-88
2023/03/11 00:18:30;;;;;;;0.00;0.00;;;;;;;11.96;55.50;97759.19;5346080;26;33964;-88
2023/03/11 00:20:58;;;;;;;0.00;0.00;;;;;;;11.62;56.47;97768.97;5346138;26;34414;-88
2023/03/11 00:23:34;;;;;;;0.00;0.00;;;;;;;11.95;54.15;97759.28;5364479;26;33235;-88
2023/03/11 00:26:03;;;;;;;0.00;0.00;;;;;;;11.92;55.73;97751.63;5327635;26;33039;-88
2023/03/11 00:28:31;;;;;;;0.00;0.00;;;;;;;11.92;54.93;97741.88;5327206;26;33523;-88
2023/03/11 00:31:02;;;;;;;0.00;0.00;;;;;;;12.36;52.14;97752.41;5327942;26;33747;-88
2023/03/11 00:33:30;;;;;;;0.00;0.00;;;;;;;11.97;54.23;97747.63;5345131;26;33177;-88
2023/03/11 00:35:58;;;;;;;0.00;0.00;;;;;;;11.81;54.38;97752.44;5327727;26;33680;-88
2023/03/11 00:38:26;;;;;;;0.00;0.00;;;;;;;12.00;51.79;97757.09;5346545;26;32519;-90
2023/03/11 00:41:04;;;;;;;0.00;0.00;;;;;;;11.96;52.73;97745.97;5347078;26;33515;-90
2023/03/11 00:43:56;;;;;;;0.00;0.00;;;;;;;11.87;52.83;97757.28;5312421;26;32610;-88
2023/03/11 00:46:51;;;;;;;0.00;0.00;;;;;;;11.91;51.86;97768.44;5313559;26;33956;-90
2023/03/11 00:49:31;;;;;;;0.00;0.00;;;;;;;11.91;51.07;97771.91;5294544;27;33130;-90
2023/03/11 00:52:00;;;;;;;0.20;0.20;;;;;;;11.62;52.58;97773.41;5258715;27;33962;-89
2023/03/11 00:54:51;;;;;;;0.00;0.00;;;;;;;11.79;51.74;97772.91;5248145;27;32229;-90
2023/03/11 00:57:44;;;;;;;0.00;0.00;;;;;;;11.92;50.24;97776.28;5265754;27;33024;-90
2023/03/11 01:00:18;;;;;;;0.00;0.00;;;;;;;12.04;49.60;97785.00;5280245;27;33166;-90
2023/03/11 01:03:01;;;;;;;0.00;0.00;;;;;;;11.84;50.85;97788.44;5302853;27;33956;-90
2023/03/11 01:05:40;;;;;;;0.08;0.08;;;;;;;12.00;50.13;97772.97;5282023;27;33248;-90
2023/03/11 01:08:31;;;;;;;0.00;0.00;;;;;;;11.77;50.58;97777.47;5273231;27;32954;-92
2023/03/11 01:11:02;;;;;;;0.00;0.00;;;;;;;11.73;51.24;97787.47;5284866;27;32884;-92
2023/03/11 01:13:55;;;;;;;0.00;0.00;;;;;;;12.18;48.30;97786.50;5308473;26;33827;-92
2023/03/11 01:16:34;;;;;;;0.00;0.00;;;;;;;11.95;49.61;97775.16;5264240;27;32223;-91
2023/03/11 01:19:25;;;;;;;0.00;0.00;;;;;;;12.05;50.10;97771.62;5281130;27;33581;-92
2023/03/11 01:22:05;;;;;;;1.08;0.98;;;;;;;12.11;48.98;97774.78;5300089;27;34089;-92
2023/03/11 01:28:17;;;;;;;0.00;0.00;;;;;;;12.00;49.04;97768.53;5251717;27;32502;-93
2023/03/11 01:31:10;;;;;;;11.57;1.55;;;;;;;11.81;50.10;97768.31;5299922;27;33134;-91
2023/03/11 01:34:02;;;;;;;0.00;0.00;;;;;;;11.97;50.06;97768.78;5304389;27;33710;-91
2023/03/11 01:36:52;;;;;;;0.00;0.00;;;;;;;11.66;50.71;97780.12;5309219;27;33350;-93
2023/03/11 01:39:32;;;;;;;0.00;0.00;;;;;;;11.69;50.95;97777.25;5277302;27;33129;-92
2023/03/11 01:42:23;;;;;;;0.00;0.00;;;;;;;11.80;51.04;97774.56;5306197;26;33703;-91
2023/03/11 01:45:27;;;;;;;0.10;0.10;;;;;;;11.81;50.75;97763.03;5265813;27;32981;-89
2023/03/11 01:47:56;;;;;;;0.00;0.00;;;;;;;12.21;49.04;97760.66;5261940;27;34949;-89
2023/03/11 01:50:24;;;;;;;0.00;0.00;;;;;;;11.78;51.17;97760.66;5262036;27;33234;-89
2023/03/11 01:52:52;;;;;;;0.00;0.00;;;;;;;11.67;51.48;97769.44;5261894;27;33056;-89
2023/03/11 01:55:20;;;;;;;0.00;0.00;;;;;;;12.13;49.48;97756.94;5244061;27;32386;-89
2023/03/11 01:57:49;;;;;;;0.00;0.00;;;;;;;12.08;49.95;97769.72;5243408;27;32285;-88
2023/03/11 02:00:18;;;;;;;0.00;0.00;;;;;;;12.01;50.19;97767.59;5261526;27;32300;-88
2023/03/11 02:02:51;;;;;;;0.00;0.00;;;;;;;12.12;49.80;97769.34;5279438;27;33235;-89
2023/03/11 02:05:22;;;;;;;0.00;0.00;;;;;;;12.24;49.49;97764.84;5243719;27;32764;-89
2023/03/11 02:07:51;;;;;;;0.00;0.00;;;;;;;12.36;48.42;97770.94;5261559;27;32375;-88
2023/03/11 02:10:20;;;;;;;0.00;0.00;;;;;;;12.11;49.08;97783.53;5261904;27;32753;-88
2023/03/11 02:12:51;;;;;;;0.10;0.10;;;;;;;11.89;49.99;97779.16;5243404;27;33997;-90
2023/03/11 02:15:22;;;;;;;0.00;0.00;;;;;;;11.93;49.45;97779.75;5261907;27;33272;-90
2023/03/11 02:18:19;;;;;;;0.00;0.00;;;;;;;11.80;49.69;97771.94;5270270;27;33943;-90
2023/03/11 02:21:25;;;;;;;0.00;0.00;;;;;;;11.85;50.13;97772.44;5245563;27;33089;-90
2023/03/11 02:24:17;;;;;;;0.10;0.10;;;;;;;11.78;49.79;97773.88;5264147;27;32545;-90
2023/03/11 02:26:59;;;;;;;0.00;0.00;;;;;;;12.08;48.30;97767.06;5262110;27;34256;-90
2023/03/11 02:29:52;;;;;;;0.05;0.05;;;;;;;12.11;47.60;97758.91;5247433;27;35096;-90
2023/03/11 02:32:55;;;;;;;0.00;0.00;;;;;;;11.69;49.50;97764.03;5201100;27;32411;-90
2023/03/11 02:35:35;;;;;;;0.00;0.00;;;;;;;11.46;50.69;97761.44;5268622;27;32577;-90
2023/03/11 02:38:38;;;;;;;0.00;0.00;;;;;;;11.70;48.90;97765.72;5252219;27;35790;-90
2023/03/11 02:41:31;;;;;;;0.00;0.00;;;;;;;12.08;47.78;97767.06;5243949;27;32332;-90
2023/03/11 02:44:41;;;;;;;0.00;0.00;;;;;;;11.71;48.38;97765.56;5280284;27;32550;-90
2023/03/11 02:47:24;;;;;;;0.00;0.00;;;;;;;11.64;48.31;97784.72;5247612;27;33016;-89
2023/03/11 02:50:15;;;;;;;0.00;0.00;;;;;;;11.95;46.87;97769.88;5265095;27;32705;-89
2023/03/11 02:52:47;;;;;;;0.00;0.00;;;;;;;11.99;45.98;97788.00;5279795;27;33096;-90
2023/03/11 02:55:19;;;;;;;0.00;0.00;;;;;;;11.83;46.34;97774.38;5279781;27;32458;-90
2023/03/11 02:57:59;;;;;;;0.00;0.00;;;;;;;11.39;47.81;97797.22;5264285;27;32807;-88
2023/03/11 03:00:28;;;;;;;0.00;0.00;;;;;;;11.53;47.18;97774.97;5280252;27;33662;-89
2023/03/11 03:03:17;;;;;;;0.00;0.00;;;;;;;11.64;47.00;97792.66;5284318;27;33170;-90
2023/03/11 03:06:06;;;;;;;0.00;0.00;;;;;;;11.80;46.86;97798.37;5284329;27;32473;-90
2023/03/11 03:09:08;;;;;;;0.00;0.00;;;;;;;11.92;45.32;97799.22;5284317;27;32565;-88
2023/03/11 03:11:37;;;;;;;0.00;0.00;;;;;;;11.57;45.49;97788.78;5263904;27;33164;-89
2023/03/11 03:14:23;;;;;;;0.00;0.00;;;;;;;11.42;46.33;97815.47;5282627;27;34318;-90
2023/03/11 03:16:56;;;;;;;0.00;0.00;;;;;;;11.59;46.39;97811.50;5281614;27;32197;-90
2023/03/11 03:19:39;;;;;;;0.05;0.05;;;;;;;11.70;45.52;97829.16;5216162;27;34424;-89
2023/03/11 03:22:26;;;;;;;0.00;0.00;;;;;;;11.68;43.93;97824.00;5248681;27;34796;-90
2023/03/11 03:25:21;;;;;;;0.00;0.00;;;;;;;11.35;44.10;97835.44;5241770;27;32560;-89
2023/03/11 03:27:49;;;;;;;0.00;0.00;;;;;;;11.18;44.00;97825.31;5237230;27;31904;-89
2023/03/11 03:30:18;;;;;;;0.00;0.00;;;;;;;11.61;42.50;97830.72;5219046;27;34349;-88
2023/03/11 03:32:47;;;;;;;0.00;0.00;;;;;;;11.34;43.43;97839.00;5254290;27;33409;-90
2023/03/11 03:35:15;;;;;;;0.10;0.10;;;;;;;11.26;42.14;97836.97;5236708;27;33086;-88
2023/03/11 03:37:50;;;;;;;0.00;0.00;;;;;;;11.14;41.01;97826.53;5220188;27;32789;-90
2023/03/11 03:40:22;;;;;;;0.00;0.00;;;;;;;11.33;40.91;97816.19;5236369;27;33992;-89
2023/03/11 03:42:54;;;;;;;0.08;0.08;;;;;;;11.27;40.80;97816.69;5237176;27;32918;-89
2023/03/11 03:45:27;;;;;;;0.00;0.00;;;;;;;11.44;40.06;97816.22;5238288;27;34382;-89
2023/03/11 03:48:13;;;;;;;0.00;0.00;;;;;;;11.13;41.23;97828.31;5270126;27;32753;-88
2023/03/11 03:51:06;;;;;;;0.00;0.00;;;;;;;11.13;40.47;97830.13;5270355;27;32768;-90
2023/03/11 03:53:54;;;;;;;5.32;1.10;;;;;;;10.67;41.54;97828.34;5269801;27;34890;-90
2023/03/11 03:56:47;;;;;;;0.00;0.00;;;;;;;11.05;41.33;97827.22;5269387;27;34068;-90
2023/03/11 03:59:27;;;;;;;0.20;0.20;;;;;;;11.18;40.46;97833.25;5200964;27;33816;-90
2023/03/11 04:02:21;;;;;;;0.00;0.00;;;;;;;10.98;41.04;97826.88;5301941;27;32483;-89
2023/03/11 04:05:14;;;;;;;0.00;0.00;;;;;;;11.16;40.40;97820.16;5261897;27;32841;-89
2023/03/11 04:07:43;;;;;;;0.00;0.00;;;;;;;10.96;40.36;97840.16;5262520;27;33939;-90
2023/03/11 04:10:41;;;;;;;0.00;0.00;;;;;;;10.97;41.13;97833.94;5253760;27;32303;-92
2023/03/11 04:13:35;;;;;;;0.00;0.00;;;;;;;10.98;41.12;97854.13;5282404;27;34126;-89
2023/03/11 04:16:37;;;;;;;0.00;0.00;;;;;;;10.59;41.99;97857.13;5251418;27;34171;-90
2023/03/11 04:19:24;;;;;;;0.00;0.00;;;;;;;10.34;41.87;97858.09;5258542;27;32497;-90
2023/03/11 04:22:14;;;;;;;0.00;0.00;;;;;;;10.70;40.50;97870.34;5327986;26;32695;-91
2023/03/11 04:25:08;;;;;;;0.00;0.00;;;;;;;10.10;40.81;97881.78;5303928;27;35534;-90
2023/03/11 04:27:51;;;;;;;0.00;0.00;;;;;;;10.22;38.66;97887.03;5298247;27;33382;-92
2023/03/11 04:30:41;;;;;;;0.00;0.00;;;;;;;10.26;37.79;97863.94;5277501;27;33512;-89
2023/03/11 04:33:25;;;;;;;0.00;0.00;;;;;;;10.34;37.67;97869.47;5240329;27;32913;-90
2023/03/11 04:36:14;;;;;;;0.00;0.00;;;;;;;10.23;38.51;97880.78;5240690;27;32933;-91
2023/03/11 04:39:00;;;;;;;0.00;0.00;;;;;;;10.11;37.70;97883.47;5220743;27;33607;-90
2023/03/11 04:41:32;;;;;;;0.08;0.08;;;;;;;10.32;37.04;97881.13;5237824;27;32677;-92
2023/03/11 04:44:04;;;;;;;;;;;;;;;10.67;36.29;97860.84;5237954;27;32503;-91
2023/03/11 04:46:41;;;;;;;0.00;0.00;;;;;;;10.11;36.42;97878.19;5220523;27;33122;-90
2023/03/11 04:49:09;;;;;;;0.00;0.00;;;;;;;9.84;36.25;97868.69;5219355;27;33236;-91
2023/03/11 04:51:38;;;;;;;0.00;0.00;;;;;;;9.65;36.88;97866.53;5219947;27;32720;-89
2023/03/11 04:54:27;;;;;;;1.90;0.57;;;;;;;9.27;36.25;97871.84;5239926;27;32717;-91
2023/03/11 04:57:15;;;;;;;0.00;0.00;;;;;;;9.39;34.41;97867.50;5222624;27;33551;-90
2023/03/11 05:00:10;;;;;;;0.00;0.00;;;;;;;9.13;35.76;97891.22;5252854;27;33157;-91
2023/03/11 05:02:42;;;;;;;1.08;0.93;;;;;;;9.35;35.45;97880.06;5246335;27;33881;-90
2023/03/11 05:05:24;;;;;;;3.53;1.42;;;;;;;9.06;35.96;97865.41;5262438;27;32794;-88
2023/03/11 05:07:53;;;;;;;0.37;0.25;;;;;;;9.19;35.60;97866.25;5262316;27;32666;-90
2023/03/11 05:10:25;;;;;;;3.25;1.73;;;;;;;9.08;37.14;97863.53;5263647;27;33473;-90
2023/03/11 05:12:56;;;;;;;0.15;0.15;;;;;;;9.26;36.70;97849.09;5263518;27;32954;-90
2023/03/11 05:15:37;;;;;;;0.00;0.00;;;;;;;9.17;36.93;97876.06;5281230;27;32054;-91
2023/03/11 05:18:23;;;;;;;0.00;0.00;;;;;;;9.16;37.41;97893.66;5305271;27;32908;-92
2023/03/11 05:21:08;;;;;;;0.55;0.52;;;;;;;8.87;38.24;97885.06;5287273;27;33203;-92
2023/03/11 05:23:59;;;;;;;2.05;1.55;;;;;;;8.61;38.02;97893.88;5293103;27;32689;-92
2023/03/11 05:27:24;;;;;;;0.00;0.00;;;;;;;8.68;38.15;97895.97;5268397;27;32656;-91
2023/03/11 05:30:17;;;;;;;1.17;0.62;;;;;;;8.47;38.90;97902.66;5239205;27;33581;-91
2023/03/11 05:33:09;;;;;;;0.00;0.00;;;;;;;8.36;40.60;97906.00;5255675;27;33460;-91
2023/03/11 05:35:52;;;;;;;0.00;0.00;;;;;;;8.30;40.12;97923.91;5238082;27;33487;-91
2023/03/11 05:38:36;;;;;;;1.17;1.15;;;;;;;8.44;39.98;97924.72;5229403;27;32594;-92
2023/03/11 05:41:40;;;;;;;0.75;0.55;;;;;;;8.52;40.36;97929.50;5275693;27;35539;-93
2023/03/11 05:44:32;;;;;;;0.00;0.00;;;;;;;8.37;39.89;97948.91;5285766;27;32789;-92
2023/03/11 05:47:23;;;;;;;0.00;0.00;;;;;;;8.74;39.51;97959.69;5245622;27;33634;-92
2023/03/11 05:50:18;;;;;;;0.00;0.00;;;;;;;8.68;38.85;97961.75;5254861;27;35071;-88
2023/03/11 05:55:37;;;;;;;0.00;0.00;;;;;;;8.81;39.24;97950.44;5241575;27;33869;-91
2023/03/11 05:58:32;;;;;;;0.00;0.00;;;;;;;8.74;39.12;97955.28;5295958;26;33236;-92
2023/03/11 06:01:19;;;;;;;0.43;0.43;;;;;;;8.27;39.35;97940.75;5293839;27;34277;-91
2023/03/11 06:04:12;;;;;;;0.00;0.00;;;;;;;8.62;38.88;97956.06;5267412;27;33559;-92
2023/03/11 06:06:59;;;;;;;0.00;0.00;;;;;;;8.49;38.65;97955.16;5288744;27;33207;-90
2023/03/11 06:09:59;;;;;;;0.00;0.00;;;;;;;8.49;39.06;97984.09;5247738;27;32725;-93
2023/03/11 06:12:52;;;;;;;0.00;0.00;;;;;;;8.28;39.67;97976.59;5228965;27;32508;-92
2023/03/11 06:16:04;;;;;;;0.00;0.00;;;;;;;8.37;39.07;97981.31;5243545;27;34831;-90
2023/03/11 06:18:41;;;;;;;0.00;0.00;;;;;;;8.37;38.49;97986.56;5238721;27;34621;-91
2023/03/11 06:21:33;;;;;;;0.13;0.13;;;;;;;8.55;38.80;97995.09;5242596;27;33233;-92
2023/03/11 06:24:20;;;;;;;0.90;0.70;;;;;;;7.98;40.35;98024.06;5279141;27;33081;-96
2023/03/11 06:27:04;;;;;;;0.10;0.10;;;;;;;8.29;38.74;98004.59;5227164;27;33501;-91
2023/03/11 06:29:57;;;;;;;;;;;;;;;8.05;38.55;98032.41;5264298;27;33479;-90
2023/03/11 06:32:53;;;;;;;0.00;0.00;;;;;;;8.09;39.19;98039.16;5283995;27;35029;-95
2023/03/11 06:36:01;;;;;;;0.00;0.00;;;;;;;8.00;38.39;98042.34;5285145;27;35000;-93
2023/03/11 06:38:45;;;;;;;0.00;0.00;;;;;;;7.96;39.44;98050.41;5269202;27;34163;-89
2023/03/11 06:41:32;;;;;;;0.00;0.00;;;;;;;8.21;39.39;98043.66;5282672;27;34396;-93
2023/03/11 06:44:15;;;;;;;0.50;0.50;;;;;;;8.24;37.94;98058.41;5240819;27;33082;-94
2023/03/11 06:46:58;;;;;;;0.00;0.00;;;;;;;8.04;38.67;98067.53;5261938;27;32638;-95
2023/03/11 06:49:46;;;;;;;0.00;0.00;;;;;;;8.19;37.49;98072.69;5299008;27;32954;-90
2023/03/11 06:53:13;;;;;;;0.00;0.00;;;;;;;7.84;39.04;98079.25;5298364;27;34260;-93
2023/03/11 06:56:13;;;;;;;0.00;0.00;;;;;;;8.08;37.29;98077.75;5255742;27;32531;-91
2023/03/11 06:59:05;;;;;;;0.00;0.00;;;;;;;8.15;37.76;98072.94;5247756;27;35064;-90
2023/03/11 07:01:48;;;;;;;0.00;0.00;;;;;;;7.70;38.18;98091.41;5269159;27;32731;-92
2023/03/11 07:04:32;;;;;;;0.00;0.00;;;;;;;7.99;37.69;98074.84;5282760;27;32861;-90
2023/03/11 07:07:24;;;;;;;0.88;0.88;;;;;;;8.02;37.72;98080.72;5245232;27;32859;-92
2023/03/11 07:10:19;;;;;;;0.62;0.62;;;;;;;7.85;37.47;98087.03;5306218;27;34237;-92
2023/03/11 07:13:13;;;;;;;0.00;0.00;;;;;;;8.46;36.67;98082.47;5244619;27;33462;-90
2023/03/11 07:16:04;;;;;;;0.00;0.00;;;;;;;8.49;35.60;98090.16;5319059;27;33096;-92
2023/03/11 07:19:01;;;;;;;0.00;0.00;;;;;;;8.46;35.65;98106.16;5278631;27;35444;-92
2023/03/11 07:21:45;;;;;;;0.00;0.00;;;;;;;8.84;35.50;98108.16;5237675;27;32945;-91
2023/03/11 07:24:28;;;;;;;0.00;0.00;;;;;;;7.98;36.49;98107.31;5269517;27;32991;-93
2023/03/11 07:27:25;;;;;;;0.00;0.00;;;;;;;8.35;37.04;98105.91;5306340;27;33962;-92
2023/03/11 07:30:14;;;;;;;0.00;0.00;;;;;;;8.44;35.82;98111.47;5304063;27;34562;-93
2023/03/11 07:33:10;;;;;;;0.00;0.00;;;;;;;8.44;35.25;98106.22;5284159;27;34774;-90
2023/03/11 07:35:51;;;;;;;3.33;1.45;;;;;;;7.91;35.63;98105.03;5238988;27;34062;-89
2023/03/11 07:38:23;;;;;;;0.00;0.00;;;;;;;8.05;36.15;98098.13;5236653;27;34855;-89
2023/03/11 07:40:59;;;;;;;0.20;0.20;;;;;;;8.26;36.36;98102.09;5237598;27;33778;-90
2023/03/11 07:43:30;;;;;;;0.00;0.00;;;;;;;8.71;36.25;98115.97;5237489;27;32076;-90
2023/03/11 07:46:24;;;;;;;0.00;0.00;;;;;;;8.75;36.32;98090.31;5244467;27;33415;-89
2023/03/11 07:49:07;;;;;;;0.55;0.43;;;;;;;8.66;35.48;98083.84;5297478;27;34177;-89
2023/03/11 07:51:55;;;;;;;0.00;0.00;;;;;;;8.21;36.97;98098.88;5327750;26;33860;-90
2023/03/11 07:54:51;;;;;;;0.00;0.00;;;;;;;8.29;34.96;98107.12;5248846;27;32527;-90
2023/03/11 07:57:25;;;;;;;0.00;0.00;;;;;;;8.11;35.24;98100.38;5241496;27;33241;-89
2023/03/11 08:00:14;;;;;;;0.00;0.00;;;;;;;7.67;36.27;98099.47;5258904;27;32740;-90
2023/03/11 08:03:24;;;;;;;0.00;0.00;;;;;;;7.59;36.64;98108.72;5263700;27;34559;-90
2023/03/11 08:06:20;;;;;;;0.00;0.00;;;;;;;7.99;35.93;98077.47;5254475;27;33412;-91
2023/03/11 08:09:08;;;;;;;0.00;0.00;;;;;;;8.22;36.07;98076.91;5243503;27;32653;-90
2023/03/11 08:11:48;;;;;;;;;;;;;;;7.94;36.36;98083.00;5206428;27;33813;-91
2023/03/11 08:14:32;;;;;;;;;;;;;;;8.07;36.35;98083.09;5246706;27;34190;-90
2023/03/11 08:17:24;;;;;;;0.00;0.00;;;;;;;8.43;35.58;98096.63;5230308;27;32460;-91
2023/03/11 08:20:02;;;;;;;0.30;0.30;;;;;;;8.00;36.30;98129.09;5258955;27;32290;-91
2023/03/11 08:22:52;;;;;;;0.30;0.30;;;;;;;7.92;36.49;98158.44;5258149;27;33406;-91
2023/03/11 08:25:33;;;;;;;0.45;0.45;;;;;;;7.63;36.46;98137.34;5242465;27;32833;-90
2023/03/11 08:28:24;;;;;;;0.00;0.00;;;;;;;8.12;35.97;98109.97;5244163;27;32626;-90
2023/03/11 08:31:27;;;;;;;0.00;0.00;;;;;;;7.81;37.40;98101.28;5245198;27;32383;-90
2023/03/11 08:34:06;;;;;;;0.00;0.00;;;;;;;7.80;35.67;98083.84;5260673;27;33403;-90
2023/03/11 08:37:04;;;;;;;0.00;0.00;;;;;;;7.83;36.65;98090.66;5267678;27;32966;-93
2023/03/11 08:39:49;;;;;;;0.00;0.00;;;;;;;8.25;35.59;98070.59;5305719;27;33267;-92
2023/03/11 08:42:45;;;;;;;0.00;0.00;;;;;;;8.70;35.14;98062.50;5263925;27;36278;-90
2023/03/11 08:45:23;;;;;;;0.00;0.00;;;;;;;9.04;34.95;98051.59;5260554;27;33297;-93
2023/03/11 08:47:53;;;;;;;0.17;0.17;;;;;;;9.06;34.98;98050.53;5248448;27;33855;-93
2023/03/11 08:50:22;;;;;;;0.30;0.30;;;;;;;8.96;35.57;98073.97;5242583;27;33100;-91
2023/03/11 08:53:07;;;;;;;0.50;0.40;;;;;;;8.84;33.98;98095.84;5264624;27;33360;-93
2023/03/11 08:55:53;;;;;;;0.10;0.10;;;;;;;8.93;33.89;98089.97;5222530;27;33685;-94
2023/03/11 08:58:54;;;;;;;0.00;0.00;;;;;;;9.18;33.08;98107.66;5298212;27;35657;-91
2023/03/11 09:04:43;;;;;;;0.37;0.37;;;;;;;9.05;34.22;98111.19;5243293;27;36036;-93
2023/03/11 09:07:19;;;;;;;0.00;0.00;;;;;;;8.95;34.45;98113.56;5220574;27;33473;-94
2023/03/11 09:10:15;;;;;;;1.55;1.10;;;;;;;8.54;35.67;98131.94;5256273;27;33038;-91
2023/03/11 09:13:00;;;;;;;0.00;0.00;;;;;;;8.63;33.89;98155.91;5220555;27;32455;-90
2023/03/11 09:15:53;;;;;;;0.00;0.00;;;;;;;8.88;33.90;98143.88;5262785;27;33071;-93
2023/03/11 09:18:28;;;;;;;0.00;0.00;;;;;;;8.92;34.47;98176.94;5244101;27;33912;-93
2023/03/11 09:21:15;;;;;;;0.00;0.00;;;;;;;8.55;36.39;98173.13;5255705;27;33317;-93
2023/03/11 09:24:10;;;;;;;0.17;0.17;;;;;;;8.72;35.78;98186.91;5293514;27;34190;-92
2023/03/11 09:26:53;;;;;;;0.00;0.00;;;;;;;9.17;36.10;98190.25;5277847;27;33461;-93
2023/03/11 09:29:40;;;;;;;0.00;0.00;;;;;;;9.35;34.85;98198.78;5292823;26;33311;-93
2023/03/11 09:32:37;;;;;;;0.05;0.05;;;;;;;8.72;35.61;98170.28;5248150;27;34719;-93
2023/03/11 09:35:20;;;;;;;0.07;0.07;;;;;;;8.07;36.70;98206.62;5264126;27;32424;-93
2023/03/11 09:38:16;;;;;;;0.00;0.00;;;;;;;8.20;37.10;98210.22;5284320;27;35857;-92
2023/03/11 09:41:17;;;;;;;0.00;0.00;;;;;;;8.25;35.85;98212.59;5304863;27;33315;-90
2023/03/11 09:44:52;;;;;;;0.00;0.00;;;;;;;8.36;35.28;98234.72;5298520;27;34627;-92
2023/03/11 09:47:43;;;;;;;0.32;0.20;;;;;;;8.31;34.98;98218.34;5304324;27;32807;-90
2023/03/11 09:50:42;;;;;;;0.00;0.00;;;;;;;8.25;35.48;98223.94;5266588;27;33330;-93
2023/03/11 09:53:33;;;;;;;0.00;0.00;;;;;;;8.24;35.23;98222.25;5246931;27;33943;-91
2023/03/11 09:56:23;;;;;;;0.00;0.00;;;;;;;8.21;35.83;98207.53;5340686;26;33569;-92
2023/03/11 09:59:25;;;;;;;0.00;0.00;;;;;;;8.67;35.12;98215.28;5282804;27;33026;-92
2023/03/11 10:02:15;;;;;;;0.00;0.00;;;;;;;8.60;34.96;98210.53;5279114;27;33772;-93
2023/03/11 10:08:27;;;;;;;0.00;0.00;;;;;;;9.13;33.81;98215.09;5264375;27;32762;-91
2023/03/11 10:11:37;;;;;;;0.00;0.00;;;;;;;8.77;34.72;98198.94;5233261;27;32265;-93
2023/03/11 10:14:24;;;;;;;0.00;0.00;;;;;;;8.96;35.10;98208.22;5294561;27;33125;-92
2023/03/11 10:17:29;;;;;;;0.00;0.00;;;;;;;9.15;34.95;98209.72;5242514;27;33007;-93
2023/03/11 10:20:30;;;;;;;0.00;0.00;;;;;;;8.81;35.39;98209.19;5284450;27;33536;-92
2023/03/11 10:23:43;;;;;;;0.00;0.00;;;;;;;9.10;33.77;98217.06;5277999;27;33296;-91
2023/03/11 10:26:42;;;;;;;2.97;1.92;;;;;;;8.53;35.41;98244.22;5245101;27;34295;-96
2023/03/11 10:30:01;;;;;;;0.10;0.10;;;;;;;8.58;35.59;98257.09;5239432;27;32540;-91
2023/03/11 10:33:03;;;;;;;0.00;0.00;;;;;;;8.40;35.85;98265.19;5242513;27;33279;-92
2023/03/11 10:35:54;;;;;;;0.00;0.00;;;;;;;8.70;35.65;98287.97;5299914;27;32892;-92
2023/03/11 10:38:48;;;;;;;0.00;0.00;;;;;;;8.54;36.79;98289.78;5260855;27;35200;-92
2023/03/11 10:41:52;;;;;;;1.77;1.67;;;;;;;8.45;35.96;98301.69;5259348;27;33273;-92
2023/03/11 10:44:23;;;;;;;0.00;0.00;;;;;;;7.87;37.70;98292.75;5240531;27;32473;-92
2023/03/11 10:47:18;;;;;;;0.15;0.15;;;;;;;8.34;36.74;98302.31;5294179;27;33080;-93
2023/03/11 10:50:18;;;;;;;0.00;0.00;;;;;;;8.18;37.35;98310.25;5312203;26;34245;-91
2023/03/11 10:53:13;;;;;;;3.30;1.20;;;;;;;8.77;36.96;98284.00;5302853;27;33368;-93
2023/03/11 10:56:12;;;;;;;0.00;0.00;;;;;;;8.78;37.15;98285.69;5303183;27;32621;-91
2023/03/11 10:59:10;;;;;;;0.00;0.00;;;;;;;8.57;37.69;98281.72;5321393;26;32341;-92
2023/03/11 11:05:19;;;;;;;0.32;0.32;;;;;;;9.56;35.37;98290.53;5259362;27;33334;-92
2023/03/11 11:08:16;;;;;;;0.00;0.00;;;;;;;9.68;35.30;98297.66;5328366;26;35958;-91
2023/03/11 11:11:01;;;;;;;0.10;0.10;;;;;;;9.79;34.92;98297.81;5324259;26;33144;-92
2023/03/11 11:13:59;;;;;;;0.00;0.00;;;;;;;10.35;34.07;98302.97;5286218;27;33190;-92
2023/03/11 11:16:59;;;;;;;0.05;0.05;;;;;;;10.17;34.07;98305.03;5284179;27;35960;-91
2023/03/11 11:19:48;;;;;;;0.00;0.00;;;;;;;9.60;34.21;98326.31;5302314;27;32684;-91
2023/03/11 11:22:32;;;;;;;;;;;;;;;9.58;34.81;98312.34;5266987;27;33227;-91
2023/03/11 11:25:37;;;;;;;0.00;0.00;;;;;;;9.23;35.89;98318.06;5350126;26;34824;-93
2023/03/11 11:28:21;;;;;;;0.00;0.00;;;;;;;9.19;36.09;98322.66;5317793;26;32853;-92
2023/03/11 11:31:24;;;;;;;0.25;0.25;;;;;;;9.21;36.10;98323.44;5323464;26;32895;-92
2023/03/11 11:37:12;;;;;;;0.00;0.00;;;;;;;9.64;34.87;98312.00;5282478;27;34166;-93
2023/03/11 11:40:18;;;;;;;0.15;0.15;;;;;;;8.95;35.95;98319.75;5271874;27;35458;-91
2023/03/11 11:43:13;;;;;;;0.00;0.00;;;;;;;8.92;36.07;98335.72;5289324;27;34611;-91
2023/03/11 11:46:33;;;;;;;0.00;0.00;;;;;;;9.03;35.55;98347.41;5282769;27;34325;-91
2023/03/11 11:49:20;;;;;;;0.00;0.00;;;;;;;8.84;35.52;98340.59;5266165;27;34550;-91
2023/03/11 11:52:16;;;;;;;0.10;0.10;;;;;;;9.15;35.54;98347.47;5300575;27;33383;-91
2023/03/11 11:55:10;;;;;;;1.55;0.40;;;;;;;9.36;35.05;98340.06;5282323;27;33023;-90
2023/03/11 11:58:11;;;;;;;3.75;1.77;;;;;;;9.12;35.45;98358.22;5289019;27;34082;-91
2023/03/11 12:01:18;;;;;;;0.00;0.00;;;;;;;9.15;34.66;98342.22;5273762;27;34065;-91
2023/03/11 12:04:49;;;;;;;0.00;0.00;;;;;;;9.11;35.17;98351.25;5273179;27;36738;-94
2023/03/11 12:07:48;;;;;;;0.10;0.10;;;;;;;8.89;34.83;98364.88;5274386;27;32616;-93
2023/03/11 12:10:46;;;;;;;0.70;0.70;;;;;;;8.90;34.76;98356.03;5268660;27;32410;-92
2023/03/11 12:20:13;;;;;;;0.57;0.57;;;;;;;9.27;34.51;98366.97;5233942;27;32968;-92
2023/03/11 12:23:26;;;;;;;0.00;0.00;;;;;;;9.26;34.69;98341.59;5234313;27;32564;-92
2023/03/11 12:26:32;;;;;;;6.55;2.40;;;;;;;9.60;34.41;98342.13;5222953;27;33694;-92
2023/03/11 12:29:26;;;;;;;0.10;0.10;;;;;;;9.57;33.93;98350.19;5233767;27;33172;-91
2023/03/11 12:32:45;;;;;;;0.32;0.30;;;;;;;9.86;33.12;98327.25;5261656;27;35544;-91
2023/03/11 12:35:51;;;;;;;1.55;0.75;;;;;;;10.00;32.52;98328.06;5260886;27;32469;-91
2023/03/11 12:38:57;;;;;;;0.00;0.00;;;;;;;10.23;33.18;98320.44;5300497;27;34930;-90
2023/03/11 12:41:41;;;;;;;1.05;0.55;;;;;;;10.52;31.97;98318.53;5270168;27;32778;-93
2023/03/11 12:44:29;;;;;;;12.95;2.92;;;;;;;10.71;32.51;98320.78;5286411;27;33160;-92
2023/03/11 12:47:27;;;;;;;0.00;0.00;;;;;;;10.60;31.48;98340.00;5290527;27;34439;-90
2023/03/11 12:50:38;;;;;;;0.25;0.25;;;;;;;10.67;31.42;98325.44;5284932;27;33247;-90
2023/03/11 12:53:42;;;;;;;0.00;0.00;;;;;;;10.17;33.01;98339.31;5283797;26;1044298;-91
2023/03/11 12:56:43;;;;;;;0.00;0.00;;;;;;;10.28;33.38;98351.84;5313949;27;32765;-92
2023/03/11 12:59:54;;;;;;;0.47;0.47;;;;;;;10.49;32.30;98356.56;5326988;26;34333;-89
2023/03/11 13:03:18;;;;;;;0.00;0.00;;;;;;;10.35;31.99;98375.09;5341150;26;33021;-91
2023/03/11 13:06:26;;;;;;;0.00;0.00;;;;;;;10.94;31.40;98374.69;5329404;26;34773;-90
2023/03/11 13:09:14;;;;;;;0.00;0.00;;;;;;;10.37;32.52;98377.63;5282885;27;33089;-91
2023/03/11 13:11:57;;;;;;;0.00;0.00;;;;;;;10.40;32.79;98386.19;5281602;27;33361;-92
2023/03/11 13:15:19;;;;;;;0.00;0.00;;;;;;;10.20;31.76;98399.78;5320230;26;34886;-91
2023/03/11 13:17:56;;;;;;;1.87;1.12;;;;;;;9.88;32.24;98405.34;5274065;27;33018;-91
2023/03/11 13:20:41;;;;;;;1.55;1.00;;;;;;;9.61;32.34;98409.69;5301063;27;33814;-89
2023/03/11 13:23:36;;;;;;;5.93;1.75;;;;;;;9.11;34.14;98429.38;5268520;27;32860;-89
2023/03/11 13:26:29;;;;;;;9.90;2.62;;;;;;;9.18;34.31;98410.50;5281707;27;32519;-90
2023/03/11 13:29:58;;;;;;;0.10;0.10;;;;;;;9.26;34.63;98438.16;5316695;27;33694;-91
2023/03/11 13:32:57;;;;;;;0.00;0.00;;;;;;;9.25;34.53;98453.13;5233866;27;32549;-93
2023/03/11 13:39:11;;;;;;;0.20;0.20;;;;;;;9.92;32.76;98445.50;5318864;27;34758;-92
2023/03/11 13:41:44;;;;;;;0.00;0.00;;;;;;;9.57;33.26;98442.44;5298625;27;33275;-90
2023/03/11 13:47:16;;;;;;;0.00;0.00;;;;;;;8.71;35.71;98474.69;5282627;27;32829;-92
2023/03/11 13:50:35;;;;;;;0.10;0.10;;;;;;;9.12;35.98;98484.63;5288533;27;34114;-92